Time;durP1;ratioP1;P1;durP2;ratioP2;P2;SDS_P1;SDS_P2;PMS_P1;PMS_P2;Temp;Humidity;BMP_temperature;BMP_pressure;BME280_temperature;BME280_humidity;BME280_pressure;Samples;Min_cycle;Max_cycle;Signal;HPM_P1;HPM_P2
2023/03/29 00:01:29;;;;;;;;;3.00;2.00;;;;;22.45;33.36;101504.72;5076765;27;45280;-76
2023/03/29 00:03:55;;;;;;;;;2.00;2.00;;;;;22.38;33.69;101486.00;5076829;27;45401;-77
2023/03/29 00:06:21;;;;;;;;;1.00;1.00;;;;;22.45;33.75;101494.13;5076816;28;45291;-76
2023/03/29 00:08:52;;;;;;;;;3.25;2.00;;;;;22.45;33.36;101491.47;5076063;27;45526;-76
2023/03/29 00:11:18;;;;;;;;;2.00;2.00;;;;;22.45;33.61;101495.94;5076596;27;46716;-76
2023/03/29 00:13:43;;;;;;;;;2.67;1.33;;;;;22.45;33.66;101485.34;5076678;28;45362;-76
2023/03/29 00:16:09;;;;;;;;;1.00;1.00;;;;;22.44;33.53;101481.84;5076872;27;45331;-76
2023/03/29 00:18:34;;;;;;;;;1.00;1.00;;;;;22.45;33.41;101485.34;5076686;28;45379;-76
2023/03/29 00:21:00;;;;;;;;;3.00;1.00;;;;;22.46;33.16;101484.31;5076553;27;45470;-76
2023/03/29 00:23:26;;;;;;;;;4.00;2.00;;;;;22.46;33.26;101485.16;5076368;28;45430;-75
2023/03/29 00:25:52;;;;;;;;;1.00;1.00;;;;;22.47;33.30;101489.47;5076641;27;45389;-76
2023/03/29 00:28:17;;;;;;;;;1.75;1.75;;;;;22.48;33.06;101493.78;5076743;28;45615;-75
2023/03/29 00:30:43;;;;;;;;;1.00;1.00;;;;;22.46;33.27;101490.47;5076119;28;46354;-76
2023/03/29 00:33:10;;;;;;;;;3.33;2.00;;;;;22.38;33.54;101472.75;5075402;28;45439;-75
2023/03/29 00:35:41;;;;;;;;;2.33;2.33;;;;;22.49;33.60;101486.66;5076274;28;45361;-75
2023/03/29 00:38:07;;;;;;;;;2.50;2.00;;;;;22.49;33.79;101484.00;5075819;28;45347;-75
2023/03/29 00:40:33;;;;;;;;;5.50;2.00;;;;;22.48;33.22;101477.06;5076159;28;46351;-75
2023/03/29 00:42:59;;;;;;;;;2.75;2.00;;;;;22.38;33.26;101470.09;5076057;28;45348;-76
2023/03/29 00:45:29;;;;;;;;;4.75;2.25;;;;;22.43;33.44;101480.19;5076318;27;45371;-75
2023/03/29 00:47:58;;;;;;;;;1.00;1.00;;;;;22.48;33.58;101492.97;5076284;27;45608;-75
2023/03/29 00:50:47;;;;;;;;;3.25;2.00;;;;;22.49;33.19;101487.47;5076044;27;46361;-75
2023/03/29 00:53:35;;;;;;;;;1.33;1.33;;;;;22.48;32.94;101480.50;5075728;27;45446;-75
2023/03/29 00:56:12;;;;;;;;;4.00;2.25;;;;;22.48;33.27;101480.50;5075575;28;45352;-76
2023/03/29 00:59:07;;;;;;;;;3.00;3.00;;;;;22.49;33.77;101484.00;5076043;27;45519;-76
2023/03/29 01:01:40;;;;;;;;;1.75;1.00;;;;;22.44;33.90;101479.19;5075256;28;46483;-75
2023/03/29 01:04:31;;;;;;;;;2.67;2.00;;;;;22.47;33.20;101486.81;5063768;28;45485;-75
2023/03/29 01:07:12;;;;;;;;;2.00;1.00;;;;;22.48;33.03;101485.00;5075678;28;45459;-75
2023/03/29 01:09:41;;;;;;;;;2.50;2.50;;;;;22.48;33.30;101479.72;5075896;28;45516;-75
2023/03/29 01:12:13;;;;;;;;;2.00;2.00;;;;;22.46;33.53;101476.38;5075791;28;46081;-75
2023/03/29 01:14:46;;;;;;;;;2.00;2.00;;;;;22.47;33.70;101481.53;5075626;28;45344;-75
2023/03/29 01:17:11;;;;;;;;;3.25;2.00;;;;;22.48;33.22;101479.72;5076022;28;45399;-75
2023/03/29 01:19:42;;;;;;;;;3.00;3.00;;;;;22.46;33.73;101479.84;5075925;28;45401;-75
2023/03/29 01:22:18;;;;;;;;;5.00;2.25;;;;;22.48;33.24;101467.25;5075425;28;46362;-75
2023/03/29 01:25:12;;;;;;;;;2.25;2.25;;;;;22.47;33.36;101455.00;5075679;28;45344;-76
2023/03/29 01:27:44;;;;;;;;;4.25;2.00;;;;;22.49;33.62;101460.13;5075245;28;45557;-75
2023/03/29 01:30:18;;;;;;;;;5.00;3.00;;;;;22.48;33.83;101461.16;5075719;28;45379;-75
2023/03/29 01:32:54;;;;;;;;;2.00;2.00;;;;;22.45;33.89;101464.13;5075339;28;46308;-75
2023/03/29 01:35:44;;;;;;;;;1.75;1.75;;;;;22.50;33.97;101477.72;5075007;28;45394;-76
2023/03/29 01:38:26;;;;;;;;;2.00;2.00;;;;;22.50;33.84;101469.75;5075349;27;45339;-75
2023/03/29 01:40:52;;;;;;;;;3.00;3.00;;;;;22.50;33.77;101469.75;5075312;28;45423;-75
2023/03/29 01:43:56;;;;;;;;;2.00;2.00;;;;;22.50;33.41;101469.75;5075162;28;47208;-75
2023/03/29 01:46:38;;;;;;;;;3.33;2.33;;;;;22.50;34.01;101473.25;5078621;28;45491;-75
2023/03/29 01:49:15;;;;;;;;;2.00;2.00;;;;;22.51;33.73;101479.34;5079000;28;45378;-75
2023/03/29 01:51:59;;;;;;;;;1.67;1.00;;;;;22.51;33.89;101471.38;5078616;28;45506;-75
2023/03/29 01:54:34;;;;;;;;;6.00;3.00;;;;;22.50;33.66;101457.31;5078763;28;46240;-75
2023/03/29 01:57:03;;;;;;;;;3.50;2.25;;;;;22.49;33.46;101458.31;5077704;27;45358;-75
2023/03/29 01:59:32;;;;;;;;;3.00;3.00;;;;;22.51;33.94;101460.78;5078622;27;45262;-76
2023/03/29 02:02:01;;;;;;;;;2.00;2.00;;;;;22.51;33.84;101455.47;5078724;27;45492;-75
2023/03/29 02:04:33;;;;;;;;;2.00;1.67;;;;;22.50;33.70;101451.19;5078307;28;46456;-76
2023/03/29 02:07:01;;;;;;;;;2.00;2.00;;;;;22.51;33.98;101444.88;5078574;28;45292;-76
2023/03/29 02:09:29;;;;;;;;;2.25;2.25;;;;;22.49;33.84;101439.75;5078890;28;45369;-75
2023/03/29 02:11:58;;;;;;;;;1.50;1.25;;;;;22.46;33.40;101437.44;5078773;27;45632;-75
2023/03/29 02:14:25;;;;;;;;;2.00;2.00;;;;;22.49;33.55;101429.16;5078490;27;45516;-77
2023/03/29 02:16:50;;;;;;;;;4.50;2.50;;;;;22.45;33.43;101427.00;5078525;28;45323;-75
2023/03/29 02:19:17;;;;;;;;;2.25;2.25;;;;;22.51;33.40;101431.63;5078209;28;45430;-75
2023/03/29 02:21:52;;;;;;;;;3.00;3.00;;;;;22.50;33.77;101424.69;5078627;28;45330;-75
2023/03/29 02:24:20;;;;;;;;;2.75;2.75;;;;;22.50;34.00;101419.38;5078226;27;46979;-75
2023/03/29 02:26:47;;;;;;;;;2.50;2.50;;;;;22.49;33.75;101421.19;5077962;27;45385;-76
2023/03/29 02:29:13;;;;;;;;;3.00;3.00;;;;;22.48;34.08;101418.72;5078374;28;45367;-76
2023/03/29 02:31:48;;;;;;;;;1.50;1.50;;;;;22.43;33.49;101419.19;5078131;28;45592;-75
2023/03/29 02:34:20;;;;;;;;;3.00;2.50;;;;;22.48;33.76;101418.72;5077906;28;47225;-76
2023/03/29 02:36:50;;;;;;;;;3.25;3.25;;;;;22.49;33.34;101423.00;5078025;28;45911;-75
2023/03/29 02:39:18;;;;;;;;;2.25;2.00;;;;;22.49;33.47;101425.66;5078332;28;45423;-76
2023/03/29 02:41:47;;;;;;;;;2.00;2.00;;;;;22.50;33.50;101419.38;5078188;28;45640;-75
2023/03/29 02:44:17;;;;;;;;;2.50;1.50;;;;;22.49;33.47;101423.00;5078246;27;46164;-75
2023/03/29 02:46:44;;;;;;;;;4.00;2.50;;;;;22.44;33.82;101406.78;5077892;28;45370;-75
2023/03/29 02:49:10;;;;;;;;;1.00;1.00;;;;;22.48;33.85;101405.47;5077721;28;45411;-76
2023/03/29 02:51:37;;;;;;;;;3.00;3.00;;;;;22.40;33.97;101393.84;5078059;28;45496;-76
2023/03/29 02:54:12;;;;;;;;;2.50;2.00;;;;;22.47;33.36;101394.03;5077920;28;45498;-75
2023/03/29 02:56:46;;;;;;;;;2.00;2.00;;;;;22.48;33.60;101408.13;5076489;28;45481;-75
2023/03/29 02:59:12;;;;;;;;;2.00;2.00;;;;;22.47;33.98;101401.16;5077587;27;45510;-76
2023/03/29 03:01:41;;;;;;;;;4.00;2.00;;;;;22.49;33.40;101399.97;5077808;27;45394;-75
2023/03/29 03:04:08;;;;;;;;;3.75;2.75;;;;;22.48;33.42;101392.19;5077412;27;46055;-75
2023/03/29 03:06:35;;;;;;;;;2.00;2.00;;;;;22.43;33.65;101378.63;5077789;27;45368;-76
2023/03/29 03:09:01;;;;;;;;;3.00;3.00;;;;;22.47;33.42;101387.88;5077836;27;45284;-75
2023/03/29 03:11:26;;;;;;;;;3.50;1.00;;;;;22.48;34.01;101400.16;5077736;27;45256;-75
2023/03/29 03:13:51;;;;;;;;;3.25;2.00;;;;;22.48;33.57;101408.13;5077960;27;45303;-75
2023/03/29 03:16:16;;;;;;;;;2.50;2.00;;;;;22.39;33.57;101392.22;5077677;27;45247;-75
2023/03/29 03:18:44;;;;;;;;;3.67;2.00;;;;;22.45;33.49;101403.97;5077467;27;45334;-75
2023/03/29 03:21:10;;;;;;;;;1.00;1.00;;;;;22.48;33.96;101405.47;5077538;27;45302;-75
2023/03/29 03:23:35;;;;;;;;;3.25;2.00;;;;;22.48;33.72;101397.50;5077405;27;46174;-76
2023/03/29 03:26:01;;;;;;;;;3.00;3.00;;;;;22.47;33.66;101401.97;5077436;27;45400;-75
2023/03/29 03:28:27;;;;;;;;;2.00;2.00;;;;;22.39;34.05;101378.13;5077653;27;45371;-75
2023/03/29 03:30:53;;;;;;;;;4.00;2.75;;;;;22.47;34.00;101390.53;5077618;27;45334;-75
2023/03/29 03:33:18;;;;;;;;;2.00;2.00;;;;;22.46;33.80;101389.69;5077478;28;47152;-76
2023/03/29 03:35:45;;;;;;;;;2.00;2.00;;;;;22.46;34.03;101387.06;5077247;28;45294;-75
2023/03/29 03:38:11;;;;;;;;;3.00;2.00;;;;;22.45;33.58;101385.41;5077200;28;45386;-76
2023/03/29 03:40:36;;;;;;;;;1.50;1.50;;;;;22.38;33.77;101374.66;5076000;28;45374;-75
2023/03/29 03:43:01;;;;;;;;;3.67;2.00;;;;;22.44;33.90;101383.75;5077279;27;45338;-76
2023/03/29 03:45:27;;;;;;;;;2.00;2.00;;;;;22.46;33.82;101381.75;5076912;28;45426;-75
2023/03/29 03:47:52;;;;;;;;;2.75;2.75;;;;;22.42;34.06;101369.84;5077322;28;45515;-76
2023/03/29 03:50:18;;;;;;;;;3.00;3.00;;;;;22.45;33.95;101368.69;5077268;28;45491;-75
2023/03/29 03:52:43;;;;;;;;;2.75;2.00;;;;;22.45;33.98;101358.06;5077007;28;45475;-77
2023/03/29 03:55:08;;;;;;;;;2.00;2.00;;;;;22.33;33.63;101337.22;5077113;28;45374;-75
2023/03/29 03:57:36;;;;;;;;;1.67;1.67;;;;;22.43;34.07;101347.63;5077138;27;45381;-75
2023/03/29 04:00:08;;;;;;;;;3.00;3.00;;;;;22.44;33.90;101353.75;5076449;27;45495;-75
2023/03/29 04:02:34;;;;;;;;;3.00;2.00;;;;;22.43;33.92;101352.13;5076621;27;46964;-76
2023/03/29 04:05:02;;;;;;;;;3.00;3.00;;;;;22.43;34.11;101354.75;5076800;27;45327;-75
2023/03/29 04:07:27;;;;;;;;;2.33;2.33;;;;;22.37;33.79;101349.16;5076713;27;45389;-75
2023/03/29 04:09:53;;;;;;;;;4.00;2.00;;;;;22.43;33.93;101360.88;5076985;28;45438;-75
2023/03/29 04:12:19;;;;;;;;;2.67;2.00;;;;;22.32;34.11;101345.34;5076802;28;46373;-75
2023/03/29 04:14:46;;;;;;;;;1.75;1.75;;;;;22.43;34.18;101360.88;5076325;28;45507;-75
2023/03/29 04:17:11;;;;;;;;;2.25;2.25;;;;;22.40;33.98;101350.63;5076997;27;45346;-76
2023/03/29 04:19:37;;;;;;;;;1.00;0.25;;;;;22.45;34.25;101352.78;5076456;28;45329;-76
2023/03/29 04:22:02;;;;;;;;;1.75;1.50;;;;;22.44;34.15;101354.59;5076481;28;46134;-75
2023/03/29 04:24:27;;;;;;;;;3.00;2.00;;;;;22.45;34.25;101360.72;5075287;28;45450;-75
2023/03/29 04:26:53;;;;;;;;;3.75;2.00;;;;;22.45;34.30;101356.25;5076616;28;45466;-75
2023/03/29 04:29:18;;;;;;;;;3.50;3.00;;;;;22.44;34.12;101362.53;5076411;28;45466;-75
2023/03/29 04:31:43;;;;;;;;;2.00;2.00;;;;;22.45;33.90;101364.22;5076398;27;46123;-75
2023/03/29 04:34:09;;;;;;;;;2.25;2.00;;;;;22.44;34.33;101370.50;5076420;28;45433;-75
2023/03/29 04:36:34;;;;;;;;;2.00;2.00;;;;;22.44;33.75;101370.50;5076547;28;45485;-76
2023/03/29 04:39:00;;;;;;;;;1.25;1.25;;;;;22.44;34.04;101365.19;5076405;27;45438;-73
2023/03/29 04:41:26;;;;;;;;;2.25;2.25;;;;;22.44;34.29;101367.00;5076364;28;45438;-76
2023/03/29 04:43:52;;;;;;;;;2.00;2.00;;;;;22.36;34.24;101357.25;5076070;27;45593;-76
2023/03/29 04:46:17;;;;;;;;;3.25;3.00;;;;;22.32;33.86;101355.94;5076502;27;45502;-75
2023/03/29 04:48:43;;;;;;;;;2.00;2.00;;;;;22.44;34.18;101361.72;5076130;28;45530;-76
2023/03/29 04:51:08;;;;;;;;;3.00;1.00;;;;;22.42;33.92;101351.28;5076175;28;46450;-76
2023/03/29 04:53:33;;;;;;;;;2.25;2.25;;;;;22.42;34.36;101350.44;5076266;27;45388;-73
2023/03/29 04:55:59;;;;;;;;;2.00;2.00;;;;;22.40;34.36;101327.56;5076224;27;45360;-77
2023/03/29 04:58:26;;;;;;;;;3.00;2.00;;;;;22.40;34.41;101335.53;5075851;27;45308;-73
2023/03/29 05:00:56;;;;;;;;;3.00;3.00;;;;;22.38;34.36;101337.53;5075828;27;46243;-77
2023/03/29 05:03:21;;;;;;;;;1.00;1.00;;;;;22.38;33.91;101331.41;5075809;27;45486;-76
2023/03/29 05:05:47;;;;;;;;;2.00;2.00;;;;;22.37;34.55;101335.06;5076084;28;45305;-76
2023/03/29 05:08:12;;;;;;;;;2.00;2.00;;;;;22.39;33.92;101333.88;5076064;27;45685;-75
2023/03/29 05:10:42;;;;;;;;;3.75;2.25;;;;;22.40;34.20;101337.38;5075773;28;47362;-75
2023/03/29 05:13:08;;;;;;;;;2.00;1.50;;;;;22.39;34.10;101317.16;5075657;27;45342;-76
2023/03/29 05:15:33;;;;;;;;;2.00;2.00;;;;;22.38;34.39;101316.31;5075533;27;46177;-75
2023/03/29 05:17:59;;;;;;;;;2.00;2.00;;;;;22.39;33.82;101319.81;5075869;27;45417;-75
2023/03/29 05:20:25;;;;;;;;;1.25;1.00;;;;;22.34;33.97;101322.13;5078296;27;45404;-74
2023/03/29 05:22:51;;;;;;;;;0.33;0.00;;;;;22.39;34.57;101339.19;5079242;28;45408;-76
2023/03/29 05:25:18;;;;;;;;;2.33;2.33;;;;;22.36;34.06;101317.50;5079828;27;45336;-78
2023/03/29 05:27:44;;;;;;;;;2.00;2.00;;;;;22.40;34.14;101330.22;5079109;27;45580;-76
2023/03/29 05:30:12;;;;;;;;;2.25;2.00;;;;;22.39;34.07;101320.63;5057960;27;46447;-76
2023/03/29 05:32:37;;;;;;;;;4.00;2.50;;;;;22.37;34.25;101308.56;5078909;28;45264;-82
2023/03/29 05:35:03;;;;;;;;;3.75;2.00;;;;;22.43;34.57;101328.25;5079408;28;45417;-77
2023/03/29 05:37:30;;;;;;;;;1.25;1.25;;;;;22.42;34.18;101327.41;5079059;28;45529;-79
2023/03/29 05:39:55;;;;;;;;;3.00;3.00;;;;;22.37;34.53;101314.69;5078850;28;46313;-79
2023/03/29 05:42:22;;;;;;;;;1.25;1.25;;;;;22.44;34.60;101316.63;5078678;28;45288;-79
2023/03/29 05:44:47;;;;;;;;;1.25;1.25;;;;;22.44;35.10;101325.41;5079147;28;45308;-83
2023/03/29 05:47:13;;;;;;;;;1.00;1.00;;;;;22.46;35.22;101319.94;5079083;28;45578;-78
2023/03/29 05:49:38;;;;;;;;;1.25;1.25;;;;;22.47;35.63;101321.59;5076694;28;46289;-80
2023/03/29 05:52:05;;;;;;;;;2.00;2.00;;;;;22.47;35.41;101321.59;5071876;28;45359;-82
2023/03/29 05:54:31;;;;;;;;;1.67;1.33;;;;;22.49;34.87;101332.84;5078998;28;45334;-79
2023/03/29 05:56:56;;;;;;;;;3.00;3.00;;;;;22.48;35.49;101334.69;5078646;27;45349;-82
2023/03/29 05:59:23;;;;;;;;;2.50;2.50;;;;;22.50;35.60;101334.53;5078171;27;46223;-92
2023/03/29 06:01:48;;;;;;;;;1.00;1.00;;;;;22.48;35.46;101328.56;5078086;27;45413;-76
2023/03/29 06:04:14;;;;;;;;;1.75;1.50;;;;;22.40;35.58;101311.66;5078135;27;45488;-75
2023/03/29 06:06:40;;;;;;;;;2.75;2.00;;;;;22.48;35.54;101329.38;5075831;28;45435;-75
2023/03/29 06:09:06;;;;;;;;;2.00;2.00;;;;;22.49;35.35;101339.00;5076386;28;46552;-80
2023/03/29 06:11:31;;;;;;;;;3.25;1.00;;;;;22.48;35.30;101341.81;5076090;28;45583;-74
2023/03/29 06:13:57;;;;;;;;;4.00;2.00;;;;;22.47;35.72;101335.69;5078533;28;45888;-76
2023/03/29 06:16:23;;;;;;;;;3.50;2.25;;;;;22.49;35.73;101336.34;5078329;28;45322;-76
2023/03/29 06:18:48;;;;;;;;;4.00;2.75;;;;;22.48;35.28;101329.38;5078635;27;45298;-75
2023/03/29 06:21:14;;;;;;;;;3.50;2.00;;;;;22.47;35.56;101322.44;5078012;28;45316;-81
2023/03/29 06:23:40;;;;;;;;;7.25;2.75;;;;;22.48;35.30;101316.13;5078403;28;45186;-79
2023/03/29 06:26:06;;;;;;;;;2.75;2.00;;;;;22.43;35.72;101296.44;5077909;27;45502;-74
2023/03/29 06:28:31;;;;;;;;;1.67;1.33;;;;;22.47;35.60;101311.00;5078183;28;47166;-79
2023/03/29 06:31:00;;;;;;;;;2.50;1.00;;;;;22.46;35.13;101304.03;5078279;27;45244;-76
2023/03/29 06:33:26;;;;;;;;;1.00;1.00;;;;;22.45;35.66;101308.53;5078312;28;45302;-75
2023/03/29 06:35:52;;;;;;;;;4.00;1.75;;;;;22.45;35.72;101308.53;5077196;28;45438;-73
2023/03/29 06:38:18;;;;;;;;;1.50;1.50;;;;;22.40;35.52;101298.41;5077925;28;45308;-75
2023/03/29 06:40:44;;;;;;;;;2.00;2.00;;;;;22.41;35.34;101309.84;5077491;28;45322;-84
2023/03/29 06:43:09;;;;;;;;;2.00;2.00;;;;;22.44;35.66;101328.06;5068206;27;45535;-78
2023/03/29 06:45:37;;;;;;;;;1.33;1.33;;;;;22.47;35.91;101326.91;5057759;28;45461;-79
2023/03/29 06:48:04;;;;;;;;;2.00;2.00;;;;;22.39;35.89;101311.84;5057474;28;45383;-78
2023/03/29 06:50:30;;;;;;;;;1.00;1.00;;;;;22.38;35.51;101318.97;5057852;28;45454;-76
2023/03/29 06:52:56;;;;;;;;;1.75;1.75;;;;;22.47;35.64;101327.72;5057819;28;45426;-76
2023/03/29 06:55:22;;;;;;;;;5.50;2.25;;;;;22.43;35.61;101326.41;5057554;28;45446;-79
2023/03/29 06:57:47;;;;;;;;;2.25;1.75;;;;;22.47;35.72;101333.03;5057624;28;47014;-79
2023/03/29 07:00:18;;;;;;;;;2.00;1.25;;;;;22.42;35.64;101327.41;5068653;27;45476;-79
2023/03/29 07:02:46;;;;;;;;;2.67;2.33;;;;;22.48;35.61;101324.06;5077875;27;45414;-76
2023/03/29 07:05:13;;;;;;;;;2.25;2.00;;;;;22.49;36.05;101322.25;5078026;27;45330;-80
2023/03/29 07:07:53;;;;;;;;;4.00;2.25;;;;;22.49;35.88;101335.50;5077768;28;46380;-76
2023/03/29 07:10:25;;;;;;;;;2.33;1.00;;;;;22.44;35.58;101346.63;5077437;28;45374;-78
2023/03/29 07:12:51;;;;;;;;;2.00;2.00;;;;;22.48;35.55;101360.38;5076297;28;45444;-79
2023/03/29 07:15:19;;;;;;;;;2.00;2.00;;;;;22.48;35.72;101358.53;5077581;28;45520;-78
2023/03/29 07:17:44;;;;;;;;;1.75;1.25;;;;;22.46;36.16;101362.34;5077626;28;45523;-78
2023/03/29 07:20:12;;;;;;;;;3.75;2.00;;;;;22.47;36.07;101374.63;5077499;28;45443;-78
2023/03/29 07:22:42;;;;;;;;;2.00;2.00;;;;;22.47;36.18;101361.38;5077856;27;45373;-79
2023/03/29 07:25:08;;;;;;;;;1.00;1.00;;;;;22.46;36.11;101351.75;5077268;27;45282;-78
2023/03/29 07:27:35;;;;;;;;;2.50;2.50;;;;;22.46;35.67;101359.72;5077276;28;47420;-79
2023/03/29 07:30:00;;;;;;;;;3.25;2.00;;;;;22.45;35.69;101364.22;5077403;28;45497;-78
2023/03/29 07:32:26;;;;;;;;;2.00;2.00;;;;;22.46;36.10;101365.00;5077447;28;45366;-78
2023/03/29 07:34:52;;;;;;;;;1.50;1.50;;;;;22.45;36.12;101373.97;5077699;28;45271;-78
2023/03/29 07:37:17;;;;;;;;;4.25;2.25;;;;;22.45;35.70;101371.31;5077046;27;46100;-78
2023/03/29 07:39:43;;;;;;;;;1.75;1.00;;;;;22.45;35.70;101356.25;5076993;28;45318;-79
2023/03/29 07:42:08;;;;;;;;;1.00;1.00;;;;;22.44;35.99;101354.59;5076817;27;45310;-79
2023/03/29 07:44:34;;;;;;;;;2.25;1.75;;;;;22.44;36.24;101357.25;5077348;28;45422;-79
2023/03/29 07:47:04;;;;;;;;;3.00;2.50;;;;;22.44;35.80;101353.75;5077110;28;47089;-78
2023/03/29 07:49:30;;;;;;;;;2.00;2.00;;;;;22.39;35.67;101352.44;5077213;28;45420;-79
2023/03/29 07:51:55;;;;;;;;;2.50;2.00;;;;;22.31;36.38;101327.78;5076819;28;45354;-78
2023/03/29 07:54:21;;;;;;;;;4.25;4.25;;;;;22.43;35.71;101337.00;5077242;28;45296;-79
2023/03/29 07:56:46;;;;;;;;;2.50;2.50;;;;;22.38;36.33;101332.22;5077122;28;46221;-78
2023/03/29 07:59:12;;;;;;;;;1.00;1.00;;;;;22.43;35.79;101344.97;5076950;27;45403;-79
2023/03/29 08:01:39;;;;;;;;;4.75;3.00;;;;;22.40;35.88;101337.38;5077176;27;45373;-78
2023/03/29 08:04:05;;;;;;;;;2.67;2.67;;;;;22.43;35.90;101344.97;5076940;28;45235;-79
2023/03/29 08:06:31;;;;;;;;;1.25;1.25;;;;;22.44;36.33;101336.03;5076001;27;46266;-79
2023/03/29 08:08:57;;;;;;;;;1.25;1.25;;;;;22.40;36.11;101327.56;5076853;27;45461;-78
2023/03/29 08:11:23;;;;;;;;;2.00;2.00;;;;;22.37;36.07;101338.53;5076995;27;45433;-79
2023/03/29 08:13:50;;;;;;;;;2.75;2.75;;;;;22.38;35.87;101347.31;5076822;27;45504;-79
2023/03/29 08:16:15;;;;;;;;;3.00;1.50;;;;;22.45;35.87;101347.47;5076686;27;46148;-78
2023/03/29 08:18:41;;;;;;;;;2.33;2.00;;;;;22.46;35.80;101338.50;5076764;27;45276;-78
2023/03/29 08:21:07;;;;;;;;;3.25;1.00;;;;;22.41;35.85;101336.34;5076557;27;45373;-78
2023/03/29 08:23:32;;;;;;;;;2.00;2.00;;;;;22.40;36.14;101330.22;5076634;28;45278;-78
2023/03/29 08:25:58;;;;;;;;;4.67;3.00;;;;;22.41;36.09;101333.72;5076515;28;45352;-78
2023/03/29 08:28:23;;;;;;;;;2.50;2.50;;;;;22.46;36.06;101341.16;5076681;28;45316;-78
2023/03/29 08:30:49;;;;;;;;;3.00;2.00;;;;;22.38;36.02;101334.88;5076558;27;45341;-78
2023/03/29 08:33:14;;;;;;;;;3.00;2.75;;;;;22.39;36.33;101331.25;5076618;28;45343;-78
2023/03/29 08:35:40;;;;;;;;;0.00;0.00;;;;;22.38;36.29;101323.44;5076026;28;45458;-78
2023/03/29 08:38:05;;;;;;;;;1.00;1.00;;;;;22.41;36.49;101317.81;5076316;28;45450;-78
2023/03/29 08:40:30;;;;;;;;;4.00;1.67;;;;;22.40;36.14;101311.66;5076536;27;45374;-79
2023/03/29 08:43:07;;;;;;;;;2.00;2.00;;;;;22.45;36.41;101315.66;5076342;28;45348;-79
2023/03/29 08:46:03;;;;;;;;;1.67;1.00;;;;;22.45;35.93;101297.09;5076401;28;45339;-78
2023/03/29 08:48:32;;;;;;;;;2.00;2.00;;;;;22.45;36.46;101275.88;5076259;28;45409;-79
2023/03/29 08:51:24;;;;;;;;;2.75;1.50;;;;;22.46;36.40;101285.47;5076080;28;45421;-78
2023/03/29 08:53:55;;;;;;;;;1.00;1.00;;;;;22.47;36.50;101287.13;5075193;28;45440;-79
2023/03/29 08:56:28;;;;;;;;;1.00;1.00;;;;;22.40;36.09;101268.44;5076155;28;46145;-79
2023/03/29 08:58:56;;;;;;;;;1.00;1.00;;;;;22.47;35.91;101276.53;5091667;27;46052;-78
2023/03/29 09:01:23;;;;;;;;;2.00;2.00;;;;;22.46;36.20;101286.28;5076254;27;45368;-78
2023/03/29 09:03:51;;;;;;;;;1.67;1.67;;;;;22.45;36.50;101273.22;5076192;28;45767;-79
2023/03/29 09:06:20;;;;;;;;;2.00;2.00;;;;;22.45;36.09;101284.66;5075548;27;47021;-79
2023/03/29 09:08:48;;;;;;;;;2.00;2.00;;;;;22.45;36.61;101284.66;5076059;27;45478;-78
2023/03/29 09:11:22;;;;;;;;;1.67;1.67;;;;;22.46;36.03;101294.25;5076017;27;45417;-78
2023/03/29 09:13:53;;;;;;;;;2.00;2.00;;;;;22.46;36.55;101280.16;5075707;28;45329;-79
2023/03/29 09:16:35;;;;;;;;;3.00;2.00;;;;;22.46;36.23;101274.84;5075408;28;46104;-79
2023/03/29 09:19:13;;;;;;;;;2.00;2.00;;;;;22.47;36.23;101281.81;5075311;27;45354;-78
2023/03/29 09:21:40;;;;;;;;;3.00;1.25;;;;;22.47;36.81;101269.41;5075675;28;45407;-78
2023/03/29 09:24:41;;;;;;;;;4.00;2.50;;;;;22.47;36.63;101276.53;5075651;28;45237;-78
2023/03/29 09:27:18;;;;;;;;;1.00;1.00;;;;;22.46;36.70;101277.50;5075452;27;46930;-78
2023/03/29 09:30:18;;;;;;;;;2.00;2.00;;;;;22.48;36.71;101267.59;5075410;28;45491;-78
2023/03/29 09:33:11;;;;;;;;;1.33;1.00;;;;;22.48;36.57;101273.69;5054304;28;45629;-78
2023/03/29 09:35:42;;;;;;;;;2.00;1.67;;;;;22.48;36.65;101265.72;5054742;28;45503;-78
2023/03/29 09:38:12;;;;;;;;;2.00;1.75;;;;;22.48;36.84;101270.22;5054919;28;46302;-78
2023/03/29 09:40:46;;;;;;;;;2.50;1.00;;;;;22.46;36.18;101264.25;5054922;28;45749;-79
2023/03/29 09:43:17;;;;;;;;;1.00;1.00;;;;;22.40;36.64;101261.28;5055246;28;45363;-78
2023/03/29 09:45:48;;;;;;;;;1.00;1.00;;;;;22.49;36.67;101272.69;5055366;28;45598;-78
2023/03/29 09:48:18;;;;;;;;;1.00;1.00;;;;;22.49;36.32;101267.41;5054942;28;45391;-79
2023/03/29 09:50:46;;;;;;;;;2.00;1.00;;;;;22.49;36.50;101262.09;5055179;28;45270;-79
2023/03/29 09:53:13;;;;;;;;;2.00;2.00;;;;;22.49;36.70;101259.44;5055217;28;45351;-78
2023/03/29 09:55:39;;;;;;;;;2.00;1.00;;;;;22.50;36.77;101263.75;5055223;28;45600;-79
2023/03/29 09:58:17;;;;;;;;;2.00;1.25;;;;;22.50;36.79;101263.75;5055020;28;47106;-78
2023/03/29 10:00:44;;;;;;;;;2.00;2.00;;;;;22.40;36.83;101245.38;5070191;27;45311;-78
2023/03/29 10:03:20;;;;;;;;;2.00;2.00;;;;;22.50;36.84;101254.97;5073890;28;45487;-78
2023/03/29 10:05:48;;;;;;;;;1.75;1.00;;;;;22.53;36.33;101249.31;5076819;27;45287;-79
2023/03/29 10:08:22;;;;;;;;;3.00;0.75;;;;;22.50;36.82;101249.66;5078819;27;45354;-79
2023/03/29 10:10:47;;;;;;;;;3.00;3.00;;;;;22.53;36.32;101246.69;5078681;28;45356;-78
2023/03/29 10:13:22;;;;;;;;;2.50;0.75;;;;;22.53;36.79;101249.31;5079047;27;45473;-79
2023/03/29 10:16:06;;;;;;;;;3.00;2.00;;;;;22.47;36.68;101231.44;5078846;27;45721;-79
2023/03/29 10:18:32;;;;;;;;;3.33;1.67;;;;;22.49;36.75;101235.56;5078172;28;47035;-79
2023/03/29 10:21:02;;;;;;;;;1.00;1.00;;;;;22.52;36.86;101229.09;5078640;27;45291;-79
2023/03/29 10:23:34;;;;;;;;;1.00;1.00;;;;;22.52;36.86;101239.72;5078476;28;45333;-79
2023/03/29 10:26:08;;;;;;;;;2.67;2.00;;;;;22.51;36.43;101230.09;5078671;28;45441;-78
2023/03/29 10:28:35;;;;;;;;;1.33;1.00;;;;;22.52;36.89;101224.63;5078317;28;47304;-79
2023/03/29 10:31:02;;;;;;;;;1.00;0.00;;;;;22.53;36.45;101217.50;5078293;27;45325;-79
2023/03/29 10:33:34;;;;;;;;;3.00;1.33;;;;;22.54;36.60;101213.84;5078062;28;45306;-79
2023/03/29 10:36:05;;;;;;;;;1.00;1.00;;;;;22.52;36.42;101206.06;5078200;27;45312;-79
2023/03/29 10:38:31;;;;;;;;;2.00;2.00;;;;;22.54;37.01;101208.53;5078166;27;47397;-78
2023/03/29 10:41:09;;;;;;;;;2.00;0.33;;;;;22.54;36.41;101211.19;5078130;28;45314;-78
2023/03/29 10:43:43;;;;;;;;;1.67;1.67;;;;;22.55;36.90;101212.03;5078352;28;45365;-79
2023/03/29 10:46:20;;;;;;;;;2.25;2.00;;;;;22.56;36.95;101209.19;5078111;27;45608;-80
2023/03/29 10:48:54;;;;;;;;;1.00;1.00;;;;;22.46;36.39;101188.19;5076806;28;47692;-79
2023/03/29 10:51:19;;;;;;;;;1.50;1.50;;;;;22.56;36.79;101193.28;5078161;27;45319;-78
2023/03/29 10:53:46;;;;;;;;;2.50;1.75;;;;;22.52;36.48;101190.16;5077964;28;45312;-79
2023/03/29 10:56:45;;;;;;;;;1.00;1.00;;;;;22.56;36.47;101197.78;5078235;27;45403;-79
2023/03/29 10:59:28;;;;;;;;;0.00;0.00;;;;;22.56;36.53;101206.53;5077826;27;47274;-79
2023/03/29 11:02:07;;;;;;;;;3.00;1.00;;;;;22.57;36.43;101202.06;5077490;27;45984;-79
2023/03/29 11:05:08;;;;;;;;;2.75;1.25;;;;;22.56;36.55;101200.44;5078041;27;45474;-79
2023/03/29 11:07:59;;;;;;;;;1.75;1.25;;;;;22.56;36.78;101192.47;5076675;28;45412;-79
2023/03/29 11:11:09;;;;;;;;;1.00;1.00;;;;;22.56;36.54;101190.63;5077915;27;45356;-79
2023/03/29 11:13:57;;;;;;;;;2.00;1.50;;;;;22.56;36.56;101184.50;5055146;28;45472;-79
2023/03/29 11:16:34;;;;;;;;;1.75;1.75;;;;;22.55;36.54;101182.84;5037729;28;45381;-79
2023/03/29 11:19:14;;;;;;;;;1.00;1.00;;;;;22.55;36.75;101175.72;5055040;28;45435;-78
2023/03/29 11:21:45;;;;;;;;;2.33;1.00;;;;;22.55;36.54;101166.94;5054861;28;45460;-79
2023/03/29 11:24:28;;;;;;;;;2.00;0.00;;;;;22.56;36.63;101173.91;5054811;28;45555;-79
2023/03/29 11:27:09;;;;;;;;;2.00;1.00;;;;;22.56;36.45;101168.59;5055115;28;45491;-79
2023/03/29 11:29:57;;;;;;;;;4.75;1.00;;;;;22.56;36.94;101160.66;5054624;28;45500;-79
2023/03/29 11:32:32;;;;;;;;;1.00;1.00;;;;;22.56;37.17;101160.66;5054693;28;47053;-79
2023/03/29 11:35:30;;;;;;;;;2.00;2.00;;;;;22.56;36.64;101158.78;5054684;28;45328;-79
2023/03/29 11:38:07;;;;;;;;;1.67;0.33;;;;;22.51;36.89;101139.94;5054819;28;45465;-79